Stormwatcher's Retreat Logo




                  Temp     Hi    Low   Out    Dew  Wind  Wind   Wind    Hi    Hi   Wind   Heat    THW   THSW                Rain  Solar   Solar Hi Solar   UV    UV    Hi     Heat    Cool    In     In    In     In     In   In Air          Wind  Wind    ISS   Arc.
  Date    Time     Out   Temp   Temp   Hum    Pt. Speed   Dir    Run Speed   Dir  Chill  Index  Index  Index   Bar    Rain  Rate   Rad.  Energy    Rad.  Index  Dose   UV     D-D     D-D    Temp   Hum    Dew   Heat    EMC Density     ET   Samp   Tx   Recept  Int.
------------------------------------------------------------------------------------------------------------------------------------------------------------------------------------------------------------------------------------------------------------------------
11/16/18 12:10a   49.8   49.8   48.8    81   44.2   6.0   ESE   1.00  10.0     E   47.5   49.8   47.5   44.7  30.225  0.00  0.00     0     0.00      0     0.0  0.00   0.0   0.106   0.000   68.9    49   48.9   67.4   9.07  .0750    0.000   210    5    100.0   10 
11/16/18 12:20a   49.7   49.9   49.7    79   43.5   7.0     E   1.17  12.0   ESE   46.8   49.6   46.7   43.9  30.223  0.00  0.00     0     0.00      0     0.0  0.00   0.0   0.106   0.000   68.9    49   48.9   67.4   9.07  .0750    0.000   212    5    100.0   10 
11/16/18 12:30a   49.5   49.7   49.5    79   43.3   7.0     E   1.17  12.0   ESE   46.6   49.4   46.5   43.7  30.230  0.00  0.00     0     0.00      0     0.0  0.00   0.0   0.108   0.000   68.8    49   48.9   67.3   9.07  .0750    0.000   213    5    100.0   10 
11/16/18 12:40a   49.7   49.8   49.5    77   42.8   4.0   ENE   0.67   9.0   ESE   48.5   49.6   48.4   45.6  30.232  0.00  0.00     0     0.00      0     0.0  0.00   0.0   0.106   0.000   68.8    49   48.9   67.3   9.07  .0750    0.000   210    5    100.0   10 
11/16/18 12:50a   48.7   49.7   48.7    78   42.1   4.0    NE   0.67   8.0    NE   47.4   48.5   47.2   44.4  30.231  0.00  0.00     0     0.00      0     0.0  0.00   0.0   0.113   0.000   68.7    49   48.8   67.2   9.08  .0750    0.000   210    5    100.0   10 
11/16/18  1:00a   47.9   48.7   47.9    79   41.7   2.0   ENE   0.33   6.0    NE   47.9   47.8   47.8   44.9  30.232  0.00  0.00     0     0.00      0     0.0  0.00   0.0   0.119   0.000   68.7    49   48.8   67.2   9.08  .0750    0.001   214    5    100.0   10 
11/16/18  1:10a   47.4   47.9   47.4    80   41.5   1.0     E   0.17   4.0   ENE   47.4   47.2   47.2   44.3  30.232  0.00  0.00     0     0.00      0     0.0  0.00   0.0   0.122   0.000   68.6    49   48.7   67.1   9.08  .0750    0.000   212    5    100.0   10 
11/16/18  1:20a   47.0   47.4   47.0    81   41.5   1.0     E   0.17   2.0     E   47.0   46.8   46.8   43.9  30.230  0.00  0.00     0     0.00      0     0.0  0.00   0.0   0.125   0.000   68.6    49   48.7   67.1   9.08  .0750    0.000   211    5    100.0   10 
11/16/18  1:30a   47.6   47.6   47.0    83   42.7   0.0     E   0.00   2.0   ESE   47.6   47.5   47.5   44.7  30.225  0.00  0.00     0     0.00      0     0.0  0.00   0.0   0.121   0.000   68.5    49   48.6   67.1   9.08  .0750    0.000   213    5    100.0   10 
11/16/18  1:40a   47.7   47.8   47.6    82   42.5   1.0     E   0.17   4.0   ENE   47.7   47.6   47.6   44.8  30.226  0.00  0.00     0     0.00      0     0.0  0.00   0.0   0.120   0.000   68.5    49   48.6   67.1   9.08  .0750    0.000   211    5    100.0   10 
11/16/18  1:50a   47.4   47.8   47.4    82   42.2   2.0    NE   0.33   5.0   ENE   47.4   47.3   47.3   44.5  30.225  0.00  0.00     0     0.00      0     0.0  0.00   0.0   0.122   0.000   68.4    49   48.5   67.0   9.08  .0751    0.000   212    5    100.0   10 
11/16/18  2:00a   47.5   47.6   47.3    83   42.6   1.0    NE   0.17   3.0    NE   47.5   47.4   47.4   44.6  30.223  0.00  0.00     0     0.00      0     0.0  0.00   0.0   0.122   0.000   68.3    49   48.4   66.9   9.08  .0751    0.001   213    5    100.0   10 
11/16/18  2:10a   48.1   48.1   47.6    83   43.2   2.0     N   0.33   5.0   NNE   48.1   48.1   48.1   45.3  30.224  0.00  0.00     0     0.00      0     0.0  0.00   0.0   0.117   0.000   68.3    48   47.8   66.8   8.88  .0751    0.000   213    5    100.0   10 
11/16/18  2:20a   48.0   48.2   48.0    83   43.1   1.0    NE   0.17   4.0   ENE   48.0   48.0   48.0   45.2  30.223  0.00  0.00     0     0.00      0     0.0  0.00   0.0   0.118   0.000   68.2    48   47.8   66.7   8.89  .0751    0.000   213    5    100.0   10 
11/16/18  2:30a   48.0   48.1   48.0    83   43.1   0.0    NE   0.00   2.0    NE   48.0   48.0   48.0   45.2  30.219  0.00  0.00     0     0.00      0     0.0  0.00   0.0   0.118   0.000   68.2    48   47.8   66.7   8.89  .0751    0.000   214    5    100.0   10 
11/16/18  2:40a   48.2   48.2   48.0    84   43.6   1.0   ESE   0.17   2.0    SE   48.2   48.2   48.2   45.4  30.220  0.00  0.00     0     0.00      0     0.0  0.00   0.0   0.117   0.000   68.1    48   47.7   66.6   8.89  .0751    0.000   211    5    100.0   10 
11/16/18  2:50a   48.5   48.5   48.2    83   43.6   1.0     E   0.17   2.0     E   48.5   48.5   48.5   45.7  30.219  0.00  0.00     0     0.00      0     0.0  0.00   0.0   0.115   0.000   68.0    48   47.6   66.5   8.89  .0751    0.000   213    5    100.0   10 
11/16/18  3:00a   48.6   48.6   48.5    83   43.7   1.0    NE   0.17   3.0   NNE   48.6   48.6   48.6   45.8  30.218  0.00  0.00     0     0.00      0     0.0  0.00   0.0   0.114   0.000   68.0    48   47.6   66.5   8.89  .0751    0.001   211    5    100.0   10 
11/16/18  3:10a   48.7   48.7   48.4    82   43.5   2.0     E   0.33   7.0    SE   48.7   48.7   48.7   45.9  30.217  0.00  0.00     0     0.00      0     0.0  0.00   0.0   0.113   0.000   67.9    48   47.5   66.4   8.89  .0751    0.000   212    5    100.0   10 
11/16/18  3:20a   49.4   49.4   48.7    80   43.5   4.0     E   0.67   9.0     E   48.2   49.3   48.1   45.3  30.210  0.00  0.00     0     0.00      0     0.0  0.00   0.0   0.108   0.000   67.9    48   47.5   66.4   8.89  .0751    0.000   212    5    100.0   10 
11/16/18  3:30a   49.9   49.9   49.4    78   43.3   4.0   ESE   0.67   7.0   ESE   48.8   49.8   48.7   45.9  30.209  0.00  0.00     0     0.00      0     0.0  0.00   0.0   0.105   0.000   67.8    48   47.4   66.3   8.89  .0751    0.000   212    5    100.0   10 
11/16/18  3:40a   50.3   50.3   49.9    76   43.0   3.0   ESE   0.50   8.0     E   50.0   50.1   49.8   47.0  30.206  0.00  0.00     0     0.00      0     0.0  0.00   0.0   0.102   0.000   67.8    48   47.4   66.3   8.89  .0751    0.000   209    5    100.0   10 
11/16/18  3:50a   50.7   50.8   50.3    76   43.4   1.0    SE   0.17   6.0   ESE   50.7   50.5   50.5   47.7  30.203  0.00  0.00     0     0.00      0     0.0  0.00   0.0   0.099   0.000   67.7    48   47.3   66.2   8.90  .0751    0.000   213    5    100.0   10 
11/16/18  4:00a   50.4   50.8   50.4    75   42.8   1.0     N   0.17   4.0     S   50.4   50.2   50.2   47.4  30.201  0.00  0.00     0     0.00      0     0.0  0.00   0.0   0.101   0.000   67.7    48   47.3   66.2   8.90  .0751    0.001   211    5    100.0   10 
11/16/18  4:10a   49.7   50.4   49.7    76   42.4   1.0     N   0.17   3.0   NNE   49.7   49.5   49.5   46.7  30.204  0.00  0.00     0     0.00      0     0.0  0.00   0.0   0.106   0.000   67.6    48   47.2   66.1   8.90  .0752    0.000   212    5    100.0   10 
11/16/18  4:20a   48.9   49.7   48.9    76   41.7   1.0    NE   0.17   3.0    NE   48.9   48.6   48.6   45.7  30.204  0.00  0.00     0     0.00      0     0.0  0.00   0.0   0.112   0.000   67.6    48   47.2   66.1   8.90  .0752    0.000   212    5    100.0   10 
11/16/18  4:30a   48.6   48.9   48.6    77   41.7   0.0    NE   0.00   2.0    NE   48.6   48.4   48.4   45.5  30.204  0.00  0.00     0     0.00      0     0.0  0.00   0.0   0.114   0.000   67.5    48   47.1   65.9   8.90  .0752    0.000   211    5    100.0   10 
11/16/18  4:40a   48.2   48.6   48.2    78   41.7   2.0    NE   0.33   3.0    NE   48.2   48.0   48.0   45.1  30.205  0.00  0.00     0     0.00      0     0.0  0.00   0.0   0.117   0.000   67.5    48   47.1   65.9   8.90  .0752    0.000   211    5    100.0   10 
11/16/18  4:50a   47.2   48.1   47.2    79   41.0   2.0    NE   0.33   4.0    NE   47.2   47.0   47.0   44.1  30.206  0.00  0.00     0     0.00      0     0.0  0.00   0.0   0.124   0.000   67.4    48   47.0   65.8   8.90  .0752    0.000   212    5    100.0   10 
11/16/18  5:00a   46.7   47.2   46.7    80   40.9   1.0   ENE   0.17   4.0   ENE   46.7   46.5   46.5   43.6  30.208  0.00  0.00     0     0.00      0     0.0  0.00   0.0   0.127   0.000   67.4    48   47.0   65.8   8.90  .0752    0.001   213    5    100.0   10 
11/16/18  5:10a   46.5   46.7   46.5    81   41.0   1.0   ENE   0.17   2.0   ENE   46.5   46.3   46.3   43.4  30.210  0.00  0.00     0     0.00      0     0.0  0.00   0.0   0.128   0.000   67.3    48   46.9   65.7   8.90  .0752    0.000   212    5    100.0   10 
11/16/18  5:20a   46.3   46.5   46.3    82   41.1   1.0   ENE   0.17   2.0   ENE   46.3   46.2   46.2   43.3  30.209  0.00  0.00     0     0.00      0     0.0  0.00   0.0   0.130   0.000   67.2    48   46.8   65.6   8.91  .0752    0.000   214    5    100.0   10 
11/16/18  5:30a   46.2   46.3   46.0    83   41.3   1.0   ENE   0.17   2.0   ENE   46.2   46.1   46.1   43.2  30.204  0.00  0.00     0     0.00      0     0.0  0.00   0.0   0.131   0.000   67.2    48   46.8   65.6   8.91  .0752    0.000   212    5    100.0   10 
11/16/18  5:40a   46.9   46.9   46.3    83   42.0   1.0   ENE   0.17   3.0   ENE   46.9   46.8   46.8   44.0  30.206  0.00  0.00     0     0.00      0     0.0  0.00   0.0   0.126   0.000   67.2    48   46.8   65.6   8.91  .0752    0.000   211    5    100.0   10 
11/16/18  5:50a   47.0   47.2   46.8    82   41.8   1.0   ESE   0.17   2.0   ENE   47.0   46.9   46.9   44.0  30.207  0.00  0.00     0     0.00      0     0.0  0.00   0.0   0.125   0.000   67.1    48   46.7   65.5   8.91  .0752    0.000   212    5    100.0   10 
11/16/18  6:00a   47.0   47.0   46.6    83   42.1   1.0   ESE   0.17   2.0   ESE   47.0   46.9   46.9   44.1  30.212  0.00  0.00     0     0.00      0     0.0  0.00   0.0   0.125   0.000   67.0    48   46.7   65.4   8.91  .0753    0.001   212    5    100.0   10 
11/16/18  6:10a   47.2   47.4   47.0    83   42.3   1.0   ESE   0.17   2.0   ESE   47.2   47.1   47.1   44.3  30.213  0.00  0.00     0     0.00      0     0.0  0.00   0.0   0.124   0.000   67.0    48   46.7   65.4   8.91  .0753    0.000   210    5    100.0   10 
11/16/18  6:20a   46.7   47.2   46.7    82   41.5   1.0   ESE   0.17   3.0   ENE   46.7   46.6   46.6   43.7  30.212  0.00  0.00     0     0.00      0     0.0  0.00   0.0   0.127   0.000   66.9    48   46.6   65.3   8.91  .0753    0.000   214    5    100.0   10 
11/16/18  6:30a   46.5   46.7   46.5    83   41.6   0.0   ENE   0.00   2.0   ENE   46.5   46.4   46.4   43.5  30.211  0.00  0.00     0     0.00      0     0.0  0.00   0.0   0.128   0.000   66.9    48   46.6   65.3   8.91  .0753    0.000   212    5    100.0   10 
11/16/18  6:40a   46.1   46.5   46.1    82   40.9   1.0   ENE   0.17   3.0   ENE   46.1   46.0   46.0   43.1  30.213  0.00  0.00     0     0.00      0     0.0  0.00   0.0   0.131   0.000   66.9    48   46.6   65.3   8.91  .0753    0.000   211    5    100.0   10 
11/16/18  6:50a   45.6   46.0   45.5    83   40.7   1.0   ENE   0.17   3.0   ENE   45.6   45.5   45.5   42.6  30.214  0.00  0.00     0     0.00      0     0.0  0.00   0.0   0.135   0.000   66.9    49   47.1   65.4   9.11  .0753    0.000   214    5    100.0   10 
11/16/18  7:00a   45.4   45.6   45.4    83   40.5   1.0   ENE   0.17   2.0   ENE   45.4   45.3   45.3   42.4  30.208  0.00  0.00     0     0.00      0     0.0  0.00   0.0   0.136   0.000   67.1    49   47.3   65.6   9.11  .0752    0.000   212    5    100.0   10 
11/16/18  7:10a   45.8   45.8   45.4    84   41.2   1.0   ENE   0.17   2.0   ENE   45.8   45.7   45.7   42.9  30.206  0.00  0.00     1     0.01      5     0.0  0.00   0.0   0.133   0.000   67.3    49   47.5   65.8   9.10  .0752    0.000   213    5    100.0   10 
11/16/18  7:20a   46.6   46.6   45.8    85   42.3   1.0   ENE   0.17   3.0   ENE   46.6   46.6   46.6   43.9  30.205  0.00  0.00     7     0.10      9     0.0  0.00   0.0   0.128   0.000   67.4    49   47.6   65.9   9.10  .0752    0.000   213    5    100.0   10 
11/16/18  7:30a   47.0   47.0   46.6    84   42.4   3.0   ESE   0.50   9.0    SE   46.3   47.0   46.3   43.7  30.200  0.00  0.00    11     0.16     12     0.0  0.00   0.0   0.125   0.000   67.6    49   47.8   66.2   9.10  .0751    0.000   209    5    100.0   10 
11/16/18  7:40a   47.6   47.6   47.0    83   42.7   5.0   ESE   0.83   9.0    SE   45.4   47.5   45.3   42.8  30.202  0.00  0.00    15     0.22     16     0.0  0.00   0.0   0.121   0.000   67.7    49   47.8   66.3   9.10  .0751    0.000   211    5    100.0   10 
11/16/18  7:50a   48.0   48.0   47.7    82   42.8   4.0   ESE   0.67  10.0   ESE   46.6   47.9   46.5   44.1  30.203  0.00  0.00    18     0.26     19     0.0  0.00   0.0   0.118   0.000   67.9    49   48.0   66.5   9.09  .0751    0.000   214    5    100.0   10 
11/16/18  8:00a   48.4   48.4   48.0    81   42.8   5.0   ESE   0.83   9.0     E   46.3   48.3   46.2   43.9  30.202  0.00  0.00    21     0.30     23     0.0  0.00   0.0   0.115   0.000   68.0    49   48.1   66.6   9.09  .0751    0.001   209    5    100.0   10 
11/16/18  8:10a   48.7   48.7   48.4    80   42.8   5.0     E   0.83   8.0   ESE   46.7   48.6   46.6   44.4  30.206  0.00  0.00    25     0.36     26     0.0  0.00   0.0   0.113   0.000   68.2    49   48.3   66.8   9.09  .0750    0.000   210    5    100.0   10 
11/16/18  8:20a   49.3   49.3   48.7    80   43.4   4.0     E   0.67   9.0     E   48.1   49.2   48.0   45.8  30.206  0.00  0.00    26     0.37     28     0.0  0.00   0.0   0.109   0.000   68.2    49   48.3   66.8   9.09  .0750    0.000   213    5    100.0   10 
11/16/18  8:30a   49.6   49.7   49.4    79   43.4   2.0    NE   0.33   7.0    SE   49.6   49.5   49.5   48.8  30.210  0.00  0.00    31     0.44     39     0.0  0.00   0.0   0.107   0.000   68.2    49   48.3   66.8   9.09  .0751    0.000   212    5    100.0   10 
11/16/18  8:40a   49.4   49.6   49.4    80   43.5   1.0    NE   0.17   4.0   NNE   49.4   49.3   49.3   51.8  30.211  0.00  0.00   113     1.62    156     0.0  0.00   0.0   0.108   0.000   68.2    49   48.3   66.8   9.09  .0751    0.000   213    5    100.0   10 
11/16/18  8:50a   49.4   49.5   49.4    81   43.8   1.0    NE   0.17   4.0    NE   49.4   49.4   49.4   53.3  30.210  0.00  0.00   167     2.39    174     0.0  0.00   0.0   0.108   0.000   68.2    49   48.3   66.8   9.09  .0751    0.000   214    5    100.0   10 
11/16/18  9:00a   49.5   49.5   49.4    81   43.9   1.0   NNE   0.17   4.0   WNW   49.5   49.5   49.5   54.3  30.213  0.00  0.00   189     2.71    199     0.0  0.00   0.0   0.108   0.000   68.2    49   48.3   66.8   9.09  .0751    0.002   210    5    100.0   10 
11/16/18  9:10a   49.2   49.6   49.2    82   43.9   3.0     N   0.50   5.0     N   48.7   49.2   48.7   54.2  30.213  0.00  0.00   203     2.91    213     0.0  0.00   0.0   0.110   0.000   68.3    49   48.4   66.9   9.08  .0750    0.000   213    5    100.0   10 
11/16/18  9:20a   49.5   49.5   49.2    83   44.6   3.0    NE   0.50   4.0     N   49.1   49.5   49.1   54.9  30.212  0.00  0.00   209     3.00    220     0.0  0.00   0.0   0.108   0.000   68.3    49   48.4   66.9   9.08  .0750    0.000   211    5    100.0   10 
11/16/18  9:30a   50.1   50.1   49.5    84   45.5   2.0    NE   0.33   4.0    NE   50.1   50.2   50.2   56.9  30.209  0.00  0.00   242     3.47    258     0.0  0.00   0.0   0.103   0.000   68.3    49   48.4   66.9   9.08  .0750    0.000   212    5    100.0   10 
11/16/18  9:40a   50.6   50.7   50.1    83   45.6   1.0    NE   0.17   3.0    NE   50.6   50.6   50.6   57.7  30.205  0.00  0.00   261     3.74    269     0.0  0.00   0.0   0.100   0.000   68.4    49   48.5   67.0   9.08  .0750    0.000   211    5    100.0   10 
11/16/18  9:50a   50.9   50.9   50.6    84   46.2   2.0   NNE   0.33   3.0   NNE   50.9   50.9   50.9   58.4  30.204  0.00  0.00   282     4.04    294     0.0  0.00   0.0   0.098   0.000   68.4    49   48.5   67.0   9.08  .0750    0.000   213    5    100.0   10 
11/16/18 10:00a   51.7   51.7   50.9    84   47.0   2.0    NE   0.33   4.0   NNE   51.7   51.7   51.7   59.7  30.201  0.00  0.00   306     4.39    316     0.0  0.00   0.0   0.092   0.000   68.4    49   48.5   67.0   9.08  .0750    0.005   213    5    100.0   10 
11/16/18 10:10a   53.7   53.7   51.8    84   49.0   3.0     E   0.50  10.0     E   53.7   53.6   53.6   61.9  30.200  0.00  0.00   326     4.67    338     0.0  0.00   0.0   0.078   0.000   68.5    49   48.6   67.1   9.08  .0750    0.000   212    5    100.0   10 
11/16/18 10:20a   55.8   55.8   53.8    81   50.1   3.0     E   0.50   8.0   ENE   55.8   55.5   55.5   64.2  30.199  0.00  0.00   344     4.93    348     0.0  0.00   0.0   0.064   0.000   68.5    49   48.6   67.1   9.08  .0750    0.000   214    5    100.0   10 
11/16/18 10:30a   56.0   56.2   55.8    78   49.2   5.0    NE   0.83   8.0   NNE   55.3   55.6   54.9   63.6  30.200  0.00  0.00   352     5.05    360     0.0  0.00   0.0   0.063   0.000   68.6    49   48.7   67.1   9.08  .0750    0.000   212    5    100.0   10 
11/16/18 10:40a   55.7   56.0   55.7    78   48.9   5.0    NE   0.83   6.0    NE   54.9   55.3   54.5   63.3  30.205  0.00  0.00   361     5.18    366     0.0  0.00   0.0   0.065   0.000   68.6    49   48.7   67.1   9.08  .0750    0.000   211    5    100.0   10 
11/16/18 10:50a   55.1   55.7   55.1    78   48.4   5.0    NE   0.83   7.0   ENE   54.2   54.7   53.8   62.7  30.204  0.00  0.00   370     5.30    374     0.0  0.00   0.0   0.069   0.000   68.7    49   48.8   67.2   9.08  .0750    0.000   214    5    100.0   10 
11/16/18 11:00a   55.5   55.5   55.1    77   48.4   4.0    NE   0.67   7.0   ENE   55.2   55.1   54.8   63.9  30.202  0.00  0.00   385     5.52    390     0.0  0.00   0.0   0.066   0.000   68.7    49   48.8   67.2   9.08  .0749    0.007   209    5    100.0   10 
11/16/18 11:10a   55.6   55.7   55.3    77   48.5   4.0    NE   0.67   6.0    NE   55.3   55.1   54.8   64.0  30.198  0.00  0.00   395     5.66    403     0.0  0.00   0.0   0.065   0.000   68.8    49   48.9   67.3   9.07  .0749    0.000   212    5    100.0   10 
11/16/18 11:20a   56.2   56.2   55.7    76   48.7   4.0    NE   0.67   7.0   NNE   56.0   55.7   55.5   64.8  30.196  0.00  0.00   404     5.79    408     0.0  0.00   0.0   0.061   0.000   68.8    50   49.4   67.4   9.27  .0749    0.000   212    5    100.0   10 
11/16/18 11:30a   57.1   57.1   56.2    76   49.6   5.0    NE   0.83   8.0   NNE   56.5   56.6   56.0   65.3  30.193  0.00  0.00   410     5.88    413     0.0  0.00   0.0   0.055   0.000   68.9    50   49.5   67.5   9.27  .0749    0.000   213    5    100.0   10 
11/16/18 11:40a   58.1   58.1   57.1    75   50.2   4.0    NE   0.67   7.0    NE   58.1   57.6   57.6   67.1  30.190  0.00  0.00   417     5.98    420     0.0  0.00   0.0   0.048   0.000   69.0    50   49.6   67.6   9.27  .0748    0.000   212    5    100.0   10 
11/16/18 11:50a   59.3   59.3   58.2    74   51.0   4.0    NE   0.67   6.0    NE   59.3   58.8   58.8   68.3  30.186  0.00  0.00   422     6.05    425     0.0  0.00   0.0   0.040   0.000   69.0    50   49.6   67.6   9.27  .0748    0.000   212    5    100.0   10 
11/16/18 12:00p   59.5   59.6   59.3    73   50.8   4.0    NE   0.67   7.0    NE   59.5   59.0   59.0   68.5  30.182  0.00  0.00   422     6.05    424     0.0  0.00   0.0   0.038   0.000   69.2    50   49.8   67.7   9.27  .0748    0.009   212    5    100.0   10 
11/16/18 12:10p   59.6   59.9   59.5    72   50.6   4.0   NNE   0.67   8.0   NNE   59.6   59.0   59.0   68.4  30.177  0.00  0.00   422     6.05    424     0.0  0.00   0.0   0.038   0.000   69.3    50   49.9   67.8   9.26  .0748    0.000   212    5    100.0   10 
11/16/18 12:20p   59.8   59.8   59.6    72   50.8   6.0    NE   1.00  10.0   NNE   59.4   59.3   58.9   68.3  30.174  0.00  0.00   421     6.04    424     0.0  0.00   0.0   0.036   0.000   69.4    50   49.9   67.9   9.26  .0747    0.000   212    5    100.0   10 
11/16/18 12:30p   59.3   59.8   59.3    72   50.3   7.0    NE   1.17  14.0    NE   58.4   58.7   57.8   67.0  30.172  0.00  0.00   419     6.01    422     0.0  0.00   0.0   0.040   0.000   69.5    50   50.0   67.9   9.26  .0747    0.000   213    5    100.0   10 
11/16/18 12:40p   59.3   59.6   59.3    72   50.3   8.0    NE   1.33  15.0    NE   57.7   58.7   57.1   65.8  30.172  0.00  0.00   416     5.96    420     0.0  0.00   0.0   0.040   0.000   69.7    50   50.2   68.1   9.26  .0747    0.000   214    5    100.0   10 
11/16/18 12:50p   59.8   59.8   59.3    72   50.8   7.0   ENE   1.17  15.0    NE   59.0   59.3   58.5   67.6  30.169  0.00  0.00   411     5.89    415     0.0  0.00   0.0   0.036   0.000   69.9    50   50.4   68.2   9.25  .0746    0.000   210    5    100.0   10 
11/16/18  1:00p   59.0   59.8   59.0    71   49.6   8.0   ENE   1.33  15.0    NE   57.3   58.3   56.6   65.1  30.166  0.00  0.00   403     5.78    408     0.0  0.00   0.0   0.042   0.000   70.0    50   50.5   68.3   9.25  .0746    0.010   210    5    100.0   10 
11/16/18  1:10p   58.6   59.0   58.5    73   50.0   9.0   ENE   1.50  15.0   ENE   56.0   58.0   55.4   63.5  30.163  0.00  0.00   395     5.66    397     0.0  0.00   0.0   0.044   0.000   70.1    50   50.6   68.4   9.25  .0746    0.000   214    5    100.0   10 
11/16/18  1:20p   58.6   58.6   58.4    72   49.6   8.0   ENE   1.33  14.0   ENE   56.8   58.0   56.2   64.5  30.157  0.00  0.00   384     5.50    390     0.0  0.00   0.0   0.044   0.000   70.2    50   50.7   68.6   9.25  .0746    0.000   211    5    100.0   10 
11/16/18  1:30p   58.1   58.6   58.0    73   49.5  10.0    NE   1.67  17.0   NNE   54.7   57.5   54.1   61.7  30.160  0.00  0.00   373     5.35    378     0.0  0.00   0.0   0.048   0.000   70.3    50   50.8   68.7   9.25  .0745    0.000   213    5    100.0   10 
11/16/18  1:40p   57.9   58.1   57.9    74   49.7   9.0    NE   1.50  16.0    NE   55.2   57.3   54.6   62.3  30.158  0.00  0.00   359     5.15    369     0.0  0.00   0.0   0.049   0.000   70.4    50   50.9   68.8   9.25  .0745    0.000   214    5    100.0   10 
11/16/18  1:50p   57.4   58.0   57.4    75   49.5   9.0    NE   1.50  18.0    NE   54.6   56.9   54.1   61.6  30.157  0.00  0.00   345     4.95    357     0.0  0.00   0.0   0.053   0.000   70.5    50   51.0   68.9   9.25  .0745    0.000   211    5    100.0   10 
11/16/18  2:00p   57.3   57.4   57.1    77   50.1  10.0    NE   1.67  18.0    NE   53.8   56.9   53.4   60.6  30.153  0.00  0.00   339     4.86    341     0.0  0.00   0.0   0.053   0.000   70.6    50   51.1   69.1   9.25  .0745    0.009   212    5    100.0   10 
11/16/18  2:10p   57.2   57.4   57.2    77   50.1   8.0    NE   1.33  14.0   NNE   55.1   56.8   54.7   62.2  30.150  0.00  0.00   323     4.63    336     0.0  0.00   0.0   0.054   0.000   70.7    50   51.1   69.2   9.25  .0745    0.000   211    5    100.0   10 
11/16/18  2:20p   56.7   57.2   56.7    79   50.3   8.0   NNE   1.33  13.0    NE   54.5   56.4   54.2   61.3  30.149  0.00  0.00   298     4.27    315     0.0  0.00   0.0   0.058   0.000   70.8    50   51.2   69.3   9.25  .0744    0.000   213    5    100.0   10 
11/16/18  2:30p   56.0   56.7   56.0    80   49.9   9.0    NE   1.50  14.0   NNE   53.0   55.7   52.7   58.8  30.147  0.00  0.00   266     3.81    309     0.0  0.00   0.0   0.063   0.000   70.9    50   51.3   69.5   9.25  .0744    0.000   213    5    100.0   10 
11/16/18  2:40p   55.6   56.0   55.6    80   49.5   9.0    NE   1.50  14.0    NE   52.5   55.3   52.2   57.3  30.143  0.00  0.00   222     3.18    279     0.0  0.00   0.0   0.065   0.000   71.0    50   51.4   69.6   9.25  .0744    0.000   212    5    100.0   10 
11/16/18  2:50p   54.8   55.6   54.8    81   49.1   9.0   ENE   1.50  13.0    NE   51.6   54.5   51.3   56.0  30.141  0.00  0.00   199     2.85    229     0.0  0.00   0.0   0.071   0.000   71.0    50   51.4   69.6   9.25  .0744    0.000   211    5    100.0   10 
11/16/18  3:00p   54.3   54.8   54.3    83   49.2   8.0    NE   1.33  15.0    NE   51.7   54.1   51.5   55.8  30.141  0.00  0.00   176     2.52    221     0.0  0.00   0.0   0.074   0.000   71.1    50   51.5   69.8   9.25  .0744    0.006   213    5    100.0   10 
11/16/18  3:10p   54.0   54.3   54.0    84   49.3   9.0    NE   1.50  14.0   NNE   50.6   53.9   50.5   54.0  30.141  0.00  0.00   153     2.19    188     0.0  0.00   0.0   0.076   0.000   71.2    50   51.6   69.9   9.25  .0743    0.000   212    5    100.0   10 
11/16/18  3:20p   53.8   54.0   53.8    84   49.1   9.0   ENE   1.50  16.0    NE   50.4   53.7   50.3   53.3  30.140  0.00  0.00   135     1.94    162     0.0  0.00   0.0   0.078   0.000   71.2    50   51.6   69.9   9.25  .0743    0.000   211    5    100.0   10 
11/16/18  3:30p   53.6   53.8   53.6    85   49.2   8.0   ENE   1.33  13.0     E   50.8   53.5   50.7   52.4  30.136  0.00  0.00    92     1.32    128     0.0  0.00   0.0   0.079   0.000   71.2    50   51.6   69.9   9.25  .0743    0.000   212    5    100.0   10 
11/16/18  3:40p   53.5   53.7   53.5    85   49.1   8.0    NE   1.33  14.0    NE   50.7   53.4   50.6   52.5  30.135  0.00  0.00    94     1.35    120     0.0  0.00   0.0   0.080   0.000   71.2    50   51.6   69.9   9.25  .0743    0.000   213    5    100.0   10 
11/16/18  3:50p   53.3   53.5   53.3    85   48.9   9.0    NE   1.50  14.0   ENE   49.8   53.2   49.7   51.3  30.135  0.00  0.00    87     1.25    102     0.0  0.00   0.0   0.081   0.000   71.2    50   51.6   69.9   9.25  .0743    0.000   212    5    100.0   10 
11/16/18  4:00p   53.0   53.2   53.0    86   48.9   9.0   ENE   1.50  16.0   ENE   49.4   52.9   49.3   50.1  30.131  0.00  0.00    66     0.95     76     0.0  0.00   0.0   0.083   0.000   71.2    50   51.6   69.9   9.25  .0743    0.003   213    5    100.0   10 
11/16/18  4:10p   52.6   53.0   52.6    86   48.5   9.0    NE   1.50  15.0   ENE   48.9   52.6   48.9   48.9  30.132  0.00  0.00    44     0.63     53     0.0  0.00   0.0   0.086   0.000   71.2    50   51.6   69.9   9.25  .0743    0.000   212    5    100.0   10 
11/16/18  4:20p   52.5   52.6   52.5    87   48.7   9.0   ENE   1.50  14.0    NE   48.8   52.5   48.8   48.3  30.132  0.00  0.00    32     0.46     42     0.0  0.00   0.0   0.087   0.000   71.2    50   51.6   69.9   9.25  .0743    0.000   211    5    100.0   10 
11/16/18  4:30p   52.3   52.5   52.3    87   48.5   9.0   ENE   1.50  14.0    NE   48.6   52.4   48.7   47.9  30.130  0.00  0.00    23     0.33     32     0.0  0.00   0.0   0.088   0.000   71.2    50   51.6   69.9   9.25  .0743    0.000   210    5    100.0   10 
11/16/18  4:40p   52.2   52.3   52.2    88   48.8   8.0    NE   1.33  14.0   NNE   49.1   52.3   49.2   47.0  30.129  0.00  0.00    11     0.16     16     0.0  0.00   0.0   0.089   0.000   71.2    50   51.6   69.9   9.25  .0743    0.000   210    5    100.0   10 
11/16/18  4:50p   52.1   52.2   52.1    88   48.7   8.0    NE   1.33  15.0   NNE   49.0   52.2   49.1   46.7  30.128  0.00  0.00     3     0.04      7     0.0  0.00   0.0   0.090   0.000   71.1    50   51.5   69.8   9.25  .0743    0.000   213    5    100.0   10 
11/16/18  5:00p   52.0   52.1   52.0    88   48.6   8.0    NE   1.33  14.0   NNE   48.9   52.1   49.0   46.5  30.128  0.00  0.00     0     0.00      0     0.0  0.00   0.0   0.090   0.000   71.1    50   51.5   69.8   9.25  .0743    0.001   211    5    100.0   10 
11/16/18  5:10p   52.0   52.0   52.0    88   48.6   8.0    NE   1.33  12.0    NE   48.9   52.1   49.0   46.5  30.129  0.00  0.00     0     0.00      0     0.0  0.00   0.0   0.090   0.000   71.0    50   51.4   69.6   9.25  .0743    0.000   212    5    100.0   10 
11/16/18  5:20p   52.0   52.0   51.9    88   48.6   8.0    NE   1.33  12.0    NE   48.9   52.1   49.0   46.5  30.126  0.00  0.00     0     0.00      0     0.0  0.00   0.0   0.090   0.000   71.0    50   51.4   69.6   9.25  .0743    0.000   209    5    100.0   10 
11/16/18  5:30p   52.0   52.0   52.0    89   48.9   6.0   ENE   1.00  11.0   NNE   50.0   52.2   50.2   47.6  30.130  0.00  0.00     0     0.00      0     0.0  0.00   0.0   0.090   0.000   71.0    50   51.4   69.6   9.25  .0744    0.000   211    5    100.0   10 
11/16/18  5:40p   51.6   52.0   51.6    89   48.5   5.0   ENE   0.83  11.0    NE   50.1   51.8   50.3   47.7  30.126  0.00  0.00     0     0.00      0     0.0  0.00   0.0   0.093   0.000   71.0    50   51.4   69.6   9.25  .0743    0.000   213    5    100.0   10 
11/16/18  5:50p   51.4   51.7   51.4    89   48.3   6.0    NE   1.00  10.0   NNE   49.3   51.6   49.5   46.9  30.123  0.00  0.00     0     0.00      0     0.0  0.00   0.0   0.094   0.000   71.0    50   51.4   69.6   9.25  .0743    0.000   211    5    100.0   10 
11/16/18  6:00p   51.2   51.4   51.2    89   48.1   6.0   ENE   1.00  10.0     E   49.1   51.4   49.3   46.7  30.124  0.00  0.00     0     0.00      0     0.0  0.00   0.0   0.096   0.000   70.9    49   50.8   69.4   9.05  .0744    0.001   210    5    100.0   10 
11/16/18  6:10p   51.2   51.3   51.2    89   48.1   4.0   ENE   0.67   9.0   ENE   50.2   51.4   50.4   47.8  30.124  0.00  0.00     0     0.00      0     0.0  0.00   0.0   0.096   0.000   70.9    49   50.8   69.4   9.05  .0744    0.000   214    5    100.0   10 
11/16/18  6:20p   51.1   51.3   51.1    89   48.0   5.0   ENE   0.83   9.0     E   49.5   51.3   49.7   47.1  30.125  0.00  0.00     0     0.00      0     0.0  0.00   0.0   0.097   0.000   70.9    49   50.8   69.4   9.05  .0744    0.000   213    5    100.0   10 
11/16/18  6:30p   51.1   51.1   51.0    89   48.0   5.0   ENE   0.83   8.0     E   49.5   51.3   49.7   47.1  30.129  0.00  0.00     0     0.00      0     0.0  0.00   0.0   0.097   0.000   70.8    49   50.7   69.2   9.05  .0744    0.000   211    5    100.0   10 
11/16/18  6:40p   51.2   51.2   51.1    89   48.1   4.0   ENE   0.67   8.0   ENE   50.2   51.4   50.4   47.8  30.128  0.00  0.00     0     0.00      0     0.0  0.00   0.0   0.096   0.000   70.8    49   50.7   69.2   9.05  .0744    0.000   214    5    100.0   10 
11/16/18  6:50p   51.2   51.2   51.1    89   48.1   4.0   ENE   0.67   9.0    NE   50.2   51.4   50.4   47.8  30.127  0.00  0.00     0     0.00      0     0.0  0.00   0.0   0.096   0.000   70.8    49   50.7   69.2   9.05  .0744    0.000   212    5    100.0   10 
11/16/18  7:00p   51.2   51.2   51.2    89   48.1   4.0   ENE   0.67  10.0    NE   50.2   51.4   50.4   47.8  30.126  0.00  0.00     0     0.00      0     0.0  0.00   0.0   0.096   0.000   70.8    49   50.7   69.2   9.05  .0744    0.001   212    5    100.0   10 
11/16/18  7:10p   50.8   51.2   50.8    89   47.7   3.0    NE   0.50   8.0   ENE   50.6   51.0   50.8   48.2  30.124  0.00  0.00     0     0.00      0     0.0  0.00   0.0   0.099   0.000   70.8    49   50.7   69.2   9.05  .0744    0.000   213    5    100.0   10 
11/16/18  7:20p   50.6   50.8   50.6    89   47.5   2.0   ENE   0.33   4.0    NE   50.6   50.8   50.8   48.2  30.119  0.00  0.00     0     0.00      0     0.0  0.00   0.0   0.100   0.000   70.7    49   50.6   69.1   9.05  .0744    0.000   208    5    100.0   10 
11/16/18  7:30p   50.2   50.6   50.2    89   47.1   1.0   ENE   0.17   2.0   ENE   50.2   50.4   50.4   47.8  30.120  0.00  0.00     0     0.00      0     0.0  0.00   0.0   0.103   0.000   70.7    49   50.6   69.1   9.05  .0744    0.000   212    5    100.0   10 
11/16/18  7:40p   50.0   50.2   50.0    89   46.9   1.0     E   0.17   2.0     E   50.0   50.3   50.3   47.6  30.123  0.00  0.00     0     0.00      0     0.0  0.00   0.0   0.104   0.000   70.7    49   50.6   69.1   9.05  .0744    0.000   213    5    100.0   10 
11/16/18  7:50p   49.6   50.0   49.6    89   46.5   1.0     E   0.17   2.0     E   49.6   49.9   49.9   47.2  30.120  0.00  0.00     0     0.00      0     0.0  0.00   0.0   0.107   0.000   70.6    49   50.5   69.0   9.05  .0744    0.000   211    5    100.0   10 
11/16/18  8:00p   49.2   49.6   49.2    89   46.1   2.0   ENE   0.33   3.0     E   49.2   49.5   49.5   46.8  30.119  0.00  0.00     0     0.00      0     0.0  0.00   0.0   0.110   0.000   70.6    49   50.5   69.0   9.05  .0744    0.000   211    5    100.0   10 
11/16/18  8:10p   48.8   49.2   48.8    89   45.7   1.0   ENE   0.17   2.0   ENE   48.8   49.0   49.0   46.3  30.116  0.00  0.00     0     0.00      0     0.0  0.00   0.0   0.113   0.000   70.6    49   50.5   69.0   9.05  .0744    0.000   212    5    100.0   10 
11/16/18  8:20p   48.8   48.8   48.7    90   46.0   1.0   ENE   0.17   3.0   ENE   48.8   49.1   49.1   46.4  30.116  0.00  0.00     0     0.00      0     0.0  0.00   0.0   0.113   0.000   70.5    49   50.4   68.9   9.05  .0744    0.000   212    5    100.0   10 
11/16/18  8:30p   48.5   48.8   48.5    89   45.4   2.0   ENE   0.33   4.0   ENE   48.5   48.7   48.7   46.0  30.120  0.00  0.00     0     0.00      0     0.0  0.00   0.0   0.115   0.000   70.5    49   50.4   68.9   9.05  .0744    0.000   212    5    100.0   10 
11/16/18  8:40p   48.7   48.7   48.4    90   45.9   1.0   ENE   0.17   3.0   ENE   48.7   49.0   49.0   46.3  30.118  0.00  0.00     0     0.00      0     0.0  0.00   0.0   0.113   0.000   70.5    49   50.4   68.9   9.05  .0744    0.000   213    5    100.0   10 
11/16/18  8:50p   48.6   48.7   48.6    90   45.8   0.0   ENE   0.00   2.0   ENE   48.6   48.9   48.9   46.2  30.121  0.00  0.00     0     0.00      0     0.0  0.00   0.0   0.114   0.000   70.4    49   50.3   68.7   9.05  .0745    0.000   213    5    100.0   10 
11/16/18  9:00p   48.8   48.8   48.6    90   46.0   1.0   ENE   0.17   2.0   ENE   48.8   49.1   49.1   46.4  30.121  0.00  0.00     0     0.00      0     0.0  0.00   0.0   0.113   0.000   70.4    49   50.3   68.7   9.05  .0745    0.000   213    5    100.0   10 
11/16/18  9:10p   48.7   48.8   48.7    90   45.9   1.0   ENE   0.17   2.0   ENE   48.7   49.0   49.0   46.3  30.123  0.00  0.00     0     0.00      0     0.0  0.00   0.0   0.113   0.000   70.3    49   50.2   68.6   9.05  .0745    0.000   212    5    100.0   10 
11/16/18  9:20p   48.5   48.7   48.5    90   45.7   2.0   ENE   0.33   4.0   ENE   48.5   48.8   48.8   46.1  30.126  0.00  0.00     0     0.00      0     0.0  0.00   0.0   0.115   0.000   70.3    49   50.2   68.6   9.05  .0745    0.000   210    5    100.0   10 
11/16/18  9:30p   48.5   48.6   48.5    90   45.7   2.0   ENE   0.33   4.0    NE   48.5   48.8   48.8   46.1  30.126  0.00  0.00     0     0.00      0     0.0  0.00   0.0   0.115   0.000   70.2    49   50.1   68.5   9.05  .0745    0.000   211    5    100.0   10 
11/16/18  9:40p   48.6   48.6   48.5    90   45.8   1.0   ENE   0.17   3.0   ENE   48.6   48.9   48.9   46.2  30.126  0.00  0.00     0     0.00      0     0.0  0.00   0.0   0.114   0.000   70.2    49   50.1   68.5   9.05  .0745    0.000   212    5    100.0   10 
11/16/18  9:50p   49.1   49.1   48.7    90   46.3   1.0   ENE   0.17   2.0   ENE   49.1   49.4   49.4   46.7  30.123  0.00  0.00     0     0.00      0     0.0  0.00   0.0   0.110   0.000   70.2    49   50.1   68.5   9.05  .0745    0.000   213    5    100.0   10 
11/16/18 10:00p   49.3   49.3   49.1    90   46.5   0.0   ENE   0.00   2.0   ENE   49.3   49.6   49.6   46.9  30.122  0.00  0.00     0     0.00      0     0.0  0.00   0.0   0.109   0.000   70.1    49   50.0   68.3   9.05  .0745    0.000   212    5    100.0   10 
11/16/18 10:10p   50.0   50.0   49.1    91   47.5   4.0     E   0.67   9.0    SE   48.9   50.3   49.2   46.6  30.121  0.00  0.00     0     0.00      0     0.0  0.00   0.0   0.104   0.000   70.0    49   50.0   68.2   9.05  .0745    0.000   210    5    100.0   10 
11/16/18 10:20p   50.5   50.5   50.0    90   47.7   5.0     E   0.83  10.0   ESE   48.8   50.8   49.1   46.5  30.119  0.00  0.00     0     0.00      0     0.0  0.00   0.0   0.101   0.000   70.0    49   50.0   68.2   9.05  .0745    0.000   212    5    100.0   10 
11/16/18 10:30p   51.1   51.1   50.5    90   48.3   7.0   ESE   1.17  11.0   ESE   48.5   51.3   48.7   46.1  30.111  0.00  0.00     0     0.00      0     0.0  0.00   0.0   0.097   0.000   69.9    49   49.9   68.1   9.05  .0745    0.000   213    5    100.0   10 
11/16/18 10:40p   51.4   51.4   51.1    90   48.6   7.0     E   1.17  12.0     E   48.9   51.6   49.1   46.5  30.112  0.00  0.00     0     0.00      0     0.0  0.00   0.0   0.094   0.000   69.9    49   49.9   68.1   9.05  .0745    0.000   212    5    100.0   10 
11/16/18 10:50p   51.5   51.5   51.4    90   48.7   6.0     E   1.00  11.0   ENE   49.5   51.7   49.7   47.1  30.111  0.00  0.00     0     0.00      0     0.0  0.00   0.0   0.094   0.000   69.8    49   49.8   68.1   9.05  .0745    0.000   210    5    100.0   10 
11/16/18 11:00p   51.6   51.6   51.5    90   48.8   5.0     E   0.83  10.0     E   50.1   51.8   50.3   47.7  30.115  0.00  0.00     0     0.00      0     0.0  0.00   0.0   0.093   0.000   69.8    49   49.8   68.1   9.05  .0745    0.001   211    5    100.0   10 
11/16/18 11:10p   51.5   51.6   51.5    90   48.7   4.0     E   0.67   8.0   ENE   50.6   51.7   50.8   48.2  30.117  0.00  0.00     0     0.00      0     0.0  0.00   0.0   0.094   0.000   69.7    49   49.7   68.0   9.06  .0746    0.000   211    5    100.0   10 
11/16/18 11:20p   51.5   51.5   51.4    90   48.7   3.0     E   0.50   8.0     E   51.4   51.7   51.6   49.0  30.115  0.00  0.00     0     0.00      0     0.0  0.00   0.0   0.094   0.000   69.7    49   49.7   68.0   9.06  .0746    0.000   211    5    100.0   10 
11/16/18 11:30p   51.1   51.4   51.1    89   48.0   2.0     E   0.33   5.0   ENE   51.1   51.3   51.3   48.7  30.115  0.00  0.00     0     0.00      0     0.0  0.00   0.0   0.097   0.000   69.6    49   49.6   67.9   9.06  .0746    0.000   213    5    100.0   10 
11/16/18 11:40p   51.3   51.4   51.1    89   48.2   3.0     E   0.50   8.0   ESE   51.1   51.5   51.3   48.7  30.117  0.00  0.00     0     0.00      0     0.0  0.00   0.0   0.095   0.000   69.6    49   49.6   67.9   9.06  .0746    0.000   211    5    100.0   10 
11/16/18 11:50p   50.5   51.3   50.5    89   47.4   2.0    NE   0.33   4.0   ENE   50.5   50.7   50.7   48.1  30.118  0.00  0.00     0     0.00      0     0.0  0.00   0.0   0.101   0.000   69.5    49   49.5   67.9   9.06  .0746    0.000   213    5    100.0   10 
11/17/18 12:00a   50.0   50.5   50.0    89   46.9   1.0    SE   0.17   2.0   ESE   50.0   50.3   50.3   47.6  30.119  0.00  0.00     0     0.00      0     0.0  0.00   0.0   0.104   0.000   69.5    49   49.5   67.9   9.06  .0746    0.000   213    5    100.0   10 
11/17/18 12:10a   49.1   50.0   49.1    88   45.7   1.0    SE   0.17   2.0    SE   49.1   49.3   49.3   46.6  30.116  0.00  0.00     0     0.00      0     0.0  0.00   0.0   0.110   0.000   69.4    49   49.4   67.8   9.06  .0746    0.000   209    5    100.0   10 
11/17/18 12:20a   48.3   49.1   48.3    89   45.2   1.0    SE   0.17   3.0   ENE   48.3   48.5   48.5   45.8  30.117  0.00  0.00     0     0.00      0     0.0  0.00   0.0   0.116   0.000   69.4    49   49.4   67.8   9.06  .0746    0.000   210    5    100.0   10 
11/17/18 12:30a   48.7   48.7   48.2    90   45.9   1.0   ENE   0.17   3.0   ENE   48.7   49.0   49.0   46.3  30.116  0.00  0.00     0     0.00      0     0.0  0.00   0.0   0.113   0.000   69.3    49   49.3   67.7   9.06  .0746    0.000   213    5    100.0   10 
11/17/18 12:40a   49.9   49.9   48.8    90   47.1   2.0   SSE   0.33   6.0   ESE   49.9   50.2   50.2   47.6  30.114  0.00  0.00     0     0.00      0     0.0  0.00   0.0   0.105   0.000   69.3    49   49.3   67.7   9.06  .0746    0.000   212    5    100.0   10 
11/17/18 12:50a   49.7   50.1   49.7    89   46.6   2.0    NE   0.33   7.0    SE   49.7   50.0   50.0   47.3  30.115  0.00  0.00     0     0.00      0     0.0  0.00   0.0   0.106   0.000   69.2    49   49.2   67.6   9.07  .0746    0.000   212    5    100.0   10 
11/17/18  1:00a   49.1   49.8   49.1    89   46.0   1.0    NE   0.17   3.0    NE   49.1   49.4   49.4   46.7  30.116  0.00  0.00     0     0.00      0     0.0  0.00   0.0   0.110   0.000   69.2    49   49.2   67.6   9.07  .0746    0.000   214    5    100.0   10 
11/17/18  1:10a   49.4   49.4   49.1    90   46.6   1.0    SW   0.17   3.0    NW   49.4   49.7   49.7   47.0  30.115  0.00  0.00     0     0.00      0     0.0  0.00   0.0   0.108   0.000   69.1    49   49.1   67.6   9.07  .0747    0.000   211    5    100.0   10 
11/17/18  1:20a   49.1   49.4   49.1    89   46.0   0.0   SSW   0.00   2.0   SSW   49.1   49.4   49.4   46.7  30.112  0.00  0.00     0     0.00      0     0.0  0.00   0.0   0.110   0.000   69.1    49   49.1   67.6   9.07  .0747    0.000   212    5    100.0   10 
11/17/18  1:30a   48.7   49.1   48.7    89   45.6   0.0   ESE   0.00   2.0   SSW   48.7   48.9   48.9   46.2  30.108  0.00  0.00     0     0.00      0     0.0  0.00   0.0   0.113   0.000   69.0    49   49.0   67.5   9.07  .0747    0.000   212    5    100.0   10 
11/17/18  1:40a   49.5   49.5   48.5    90   46.7   2.0   ESE   0.33   6.0   ESE   49.5   49.8   49.8   47.1  30.108  0.00  0.00     0     0.00      0     0.0  0.00   0.0   0.108   0.000   68.9    49   48.9   67.4   9.07  .0747    0.000   212    5    100.0   10 
11/17/18  1:50a   50.4   50.4   49.5    90   47.6   4.0     E   0.67   7.0     E   49.3   50.7   49.6   47.0  30.107  0.00  0.00     0     0.00      0     0.0  0.00   0.0   0.101   0.000   68.9    49   48.9   67.4   9.07  .0747    0.000   210    5    100.0   10 
11/17/18  2:00a   50.8   50.9   50.4    90   48.0   5.0     E   0.83   7.0     E   49.2   51.0   49.4   46.8  30.105  0.00  0.00     0     0.00      0     0.0  0.00   0.0   0.099   0.000   68.8    49   48.9   67.3   9.07  .0747    0.000   209    5    100.0   10 
11/17/18  2:10a   50.6   50.8   50.6    89   47.5   5.0     E   0.83   9.0     E   48.9   50.8   49.1   46.5  30.105  0.00  0.00     0     0.00      0     0.0  0.00   0.0   0.100   0.000   68.8    49   48.9   67.3   9.07  .0747    0.000   212    5    100.0   10 
11/17/18  2:20a   50.2   50.6   50.2    89   47.1   4.0     E   0.67   9.0   ENE   49.1   50.4   49.3   46.7  30.104  0.00  0.00     0     0.00      0     0.0  0.00   0.0   0.103   0.000   68.8    49   48.9   67.3   9.07  .0747    0.000   212    5    100.0   10 
11/17/18  2:30a   50.4   50.5   50.2    89   47.3   6.0     E   1.00  10.0   ESE   48.2   50.6   48.4   45.8  30.106  0.00  0.00     0     0.00      0     0.0  0.00   0.0   0.101   0.000   68.7    49   48.8   67.2   9.08  .0747    0.000   211    5    100.0   10 
11/17/18  2:40a   50.5   50.5   50.4    89   47.4   6.0     E   1.00  12.0     E   48.3   50.7   48.5   45.9  30.106  0.00  0.00     0     0.00      0     0.0  0.00   0.0   0.101   0.000   68.6    49   48.7   67.1   9.08  .0747    0.000   211    5    100.0   10 
11/17/18  2:50a   50.6   50.6   50.5    88   47.2   5.0     E   0.83  14.0   ENE   48.9   50.8   49.1   46.5  30.106  0.00  0.00     0     0.00      0     0.0  0.00   0.0   0.100   0.000   68.6    49   48.7   67.1   9.08  .0747    0.000   213    5    100.0   10 
11/17/18  3:00a   50.5   50.6   50.4    88   47.1   4.0     E   0.67  14.0   ENE   49.5   50.7   49.7   47.1  30.109  0.00  0.00     0     0.00      0     0.0  0.00   0.0   0.101   0.000   68.5    49   48.6   67.1   9.08  .0747    0.001   213    5    100.0   10 
11/17/18  3:10a   50.6   50.6   50.4    88   47.2   3.0     E   0.50   9.0   ESE   50.4   50.8   50.6   48.0  30.109  0.00  0.00     0     0.00      0     0.0  0.00   0.0   0.100   0.000   68.5    49   48.6   67.1   9.08  .0747    0.000   211    5    100.0   10 
11/17/18  3:20a   50.9   50.9   50.6    88   47.5   5.0   ENE   0.83  13.0    NE   49.3   51.0   49.4   46.8  30.106  0.00  0.00     0     0.00      0     0.0  0.00   0.0   0.098   0.000   68.4    49   48.5   67.0   9.08  .0748    0.000   210    5    100.0   10 
11/17/18  3:30a   51.1   51.1   50.9    87   47.4   5.0     E   0.83   9.0     E   49.5   51.2   49.6   47.0  30.104  0.00  0.00     0     0.00      0     0.0  0.00   0.0   0.097   0.000   68.4    49   48.5   67.0   9.08  .0748    0.000   210    5    100.0   10 
11/17/18  3:40a   51.1   51.2   51.0    87   47.4   5.0     E   0.83  11.0     E   49.5   51.2   49.6   47.0  30.100  0.00  0.00     0     0.00      0     0.0  0.00   0.0   0.097   0.000   68.3    49   48.4   66.9   9.08  .0748    0.000   212    5    100.0   10 
11/17/18  3:50a   51.5   51.5   51.2    86   47.5   7.0     E   1.17  11.0    SE   49.0   51.5   49.0   46.4  30.100  0.00  0.00     0     0.00      0     0.0  0.00   0.0   0.094   0.000   68.3    49   48.4   66.9   9.08  .0748    0.000   213    5    100.0   10 
11/17/18  4:00a   51.7   51.7   51.5    85   47.3   8.0     E   1.33  13.0   ENE   48.5   51.7   48.5   46.0  30.101  0.00  0.00     0     0.00      0     0.0  0.00   0.0   0.092   0.000   68.2    49   48.3   66.8   9.09  .0748    0.001   211    5    100.0   10 
11/17/18  4:10a   51.4   51.7   51.4    84   46.7   6.0     E   1.00  13.0     E   49.3   51.4   49.3   46.6  30.098  0.00  0.00     0     0.00      0     0.0  0.00   0.0   0.094   0.000   68.2    49   48.3   66.8   9.09  .0748    0.000   210    5    100.0   10 
11/17/18  4:20a   51.4   51.5   51.4    84   46.7   6.0     E   1.00  12.0   ENE   49.3   51.4   49.3   46.6  30.095  0.00  0.00     0     0.00      0     0.0  0.00   0.0   0.094   0.000   68.1    49   48.2   66.7   9.09  .0748    0.000   213    5    100.0   10 
11/17/18  4:30a   50.9   51.3   50.9    83   45.9   6.0   ESE   1.00  12.0   ESE   48.8   50.9   48.8   46.1  30.098  0.00  0.00     0     0.00      0     0.0  0.00   0.0   0.098   0.000   68.1    49   48.2   66.7   9.09  .0748    0.000   211    5    100.0   10 
11/17/18  4:40a   50.7   50.9   50.6    83   45.7   5.0     E   0.83  11.0   ESE   49.0   50.7   49.0   46.3  30.100  0.00  0.00     0     0.00      0     0.0  0.00   0.0   0.099   0.000   68.0    49   48.1   66.6   9.09  .0748    0.000   213    5    100.0   10 
11/17/18  4:50a   50.7   50.8   50.7    82   45.4   6.0     E   1.00  12.0   ESE   48.5   50.7   48.5   45.8  30.098  0.00  0.00     0     0.00      0     0.0  0.00   0.0   0.099   0.000   68.0    49   48.1   66.6   9.09  .0748    0.000   213    5    100.0   10 
11/17/18  5:00a   50.6   50.7   50.6    82   45.3   6.0   ENE   1.00  14.0   ENE   48.4   50.6   48.4   45.7  30.095  0.00  0.00     0     0.00      0     0.0  0.00   0.0   0.100   0.000   67.9    49   48.0   66.5   9.09  .0748    0.001   213    5    100.0   10 
11/17/18  5:10a   50.6   50.6   50.5    81   45.0   7.0     E   1.17  14.0   ENE   47.9   50.6   47.9   45.2  30.092  0.00  0.00     0     0.00      0     0.0  0.00   0.0   0.100   0.000   67.9    49   48.0   66.5   9.09  .0748    0.000   212    5    100.0   10 
11/17/18  5:20a   50.5   50.6   50.5    81   44.9   6.0     E   1.00  17.0   ENE   48.3   50.5   48.3   45.6  30.095  0.00  0.00     0     0.00      0     0.0  0.00   0.0   0.101   0.000   67.8    49   47.9   66.4   9.09  .0748    0.000   211    5    100.0   10 
11/17/18  5:30a   50.5   50.5   50.5    80   44.6   7.0     E   1.17  17.0   ENE   47.8   50.5   47.8   45.1  30.097  0.00  0.00     0     0.00      0     0.0  0.00   0.0   0.101   0.000   67.8    49   47.9   66.4   9.09  .0748    0.000   213    5    100.0   10 
11/17/18  5:40a   50.5   50.5   50.4    80   44.6   8.0     E   1.33  17.0   ENE   47.1   50.5   47.1   44.5  30.096  0.00  0.00     0     0.00      0     0.0  0.00   0.0   0.101   0.000   67.8    49   47.9   66.4   9.09  .0748    0.000   210    5    100.0   10 
11/17/18  5:50a   50.5   50.5   50.4    79   44.2   9.0     E   1.50  16.0    SE   46.5   50.4   46.4   43.9  30.097  0.00  0.00     0     0.00      0     0.0  0.00   0.0   0.101   0.000   67.7    49   47.8   66.3   9.10  .0749    0.000   213    5    100.0   10 
11/17/18  6:00a   50.6   50.6   50.5    78   44.0   8.0     E   1.33  14.0   ESE   47.2   50.5   47.1   44.4  30.097  0.00  0.00     0     0.00      0     0.0  0.00   0.0   0.100   0.000   67.7    49   47.8   66.3   9.10  .0749    0.001   212    5    100.0   10 
11/17/18  6:10a   50.1   50.6   50.1    77   43.2   6.0     E   1.00   9.0     E   47.8   50.0   47.7   44.9  30.098  0.00  0.00     0     0.00      0     0.0  0.00   0.0   0.103   0.000   67.6    49   47.8   66.2   9.10  .0749    0.000   213    5    100.0   10 
11/17/18  6:20a   50.0   50.1   49.8    77   43.1   8.0     E   1.33  14.0   ENE   46.5   49.9   46.4   43.7  30.094  0.00  0.00     0     0.00      0     0.0  0.00   0.0   0.104   0.000   67.6    49   47.8   66.2   9.10  .0749    0.000   211    5    100.0   10 
11/17/18  6:30a   49.9   50.0   49.9    76   42.6   7.0     E   1.17  14.0   ENE   47.1   49.7   46.9   44.1  30.091  0.00  0.00     0     0.00      0     0.0  0.00   0.0   0.105   0.000   67.6    49   47.8   66.2   9.10  .0749    0.000   212    5    100.0   10 
11/17/18  6:40a   49.7   49.9   49.6    76   42.4   8.0     E   1.33  15.0   ENE   46.1   49.5   45.9   43.2  30.089  0.00  0.00     0     0.00      0     0.0  0.00   0.0   0.106   0.000   67.7    49   47.8   66.3   9.10  .0748    0.000   212    5    100.0   10 
11/17/18  6:50a   49.6   49.7   49.6    75   42.0   7.0     E   1.17  16.0   ENE   46.7   49.4   46.5   43.7  30.092  0.00  0.00     0     0.00      0     0.0  0.00   0.0   0.107   0.000   67.8    49   47.9   66.4   9.09  .0748    0.000   211    5    100.0   10 
11/17/18  7:00a   50.0   50.0   49.5    73   41.7   9.0     E   1.50  15.0     E   45.9   49.7   45.6   43.0  30.092  0.00  0.00     0     0.00      0     0.0  0.00   0.0   0.104   0.000   67.9    49   48.0   66.5   9.09  .0748    0.001   211    5    100.0   10 
11/17/18  7:10a   49.7   50.1   49.7    74   41.7   8.0   ENE   1.33  15.0   NNE   46.1   49.4   45.8   43.1  30.097  0.00  0.00     1     0.01      5     0.0  0.00   0.0   0.106   0.000   68.0    49   48.1   66.6   9.09  .0748    0.000   212    5    100.0   10 
11/17/18  7:20a   49.9   49.9   49.7    72   41.2   6.0   ENE   1.00  12.0   ESE   47.6   49.6   47.3   44.6  30.101  0.00  0.00     6     0.09      9     0.0  0.00   0.0   0.105   0.000   68.1    49   48.2   66.7   9.09  .0748    0.000   212    5    100.0   10 
Email: AdamSPAM@StormwatchersRetreat.com (To send me email remove the word 'SPAM' from my email address.)